Dardanelle, Arkansas
Current Conditions -  °F | °C
As of 2:53 PM on Thursday 23 Oct 2014 (Local Time) from KRUE Reporting Station
Scattered Clouds Scattered Clouds  
Wind Chill: 66°   Ceiling: Unl
Heat Index: 66°   Visibility: 10mi
Dew Point: 45°   Wind: 3mph
Humidity: 47%   Direction: 350°N
Pressure: 30.14"   Gusts: NA
Location:  35.22°N, 93.16°W
Report Text: KRUE 231953Z AUTO 35003KT 10SM SCT120 19/07 A3014 RMK AO2 SLP203 T01890072
Loading
Personal Weather Stations






























Interactive Weather Map
Tropical Storm Tracking
New forecast layout! Learn more

10-Day Weather Forecast

Advertisements
Track Severe Weather on mobile